Terminal Aerodrome Forecast
Issued by NWS

Home | Current Version | Previous Version | Graphics & Text | Print | Product List | Glossary On
Versions: 1 2 3 4 5 6 7 8 9 10 11 12 13 14 15
000
FTUS43 KOAX 201150
TAFCDR
TAF
KCDR 201150Z 2012/2112 24007KT P6SM BKN100
     FM201600 04007KT P6SM VCSH BKN015
     FM201900 04007KT 1SM -SN OVC015
     FM202200 03007KT 1/2SM SN OVC008=

USA.gov is the U.S. government's official web portal to all federal, state and local government web resources and services.